Scroll To Top

Nearby METAR Reports

KBAX - Bad Axe, Michigan, USA
Distance from station: ESE 22 mi,
Updated:
Clear
Clear
 Wind from NW
Wind: NW 7 mph , 11 km/h
Temperature: 59°F , 15°C
Dew Point: 52°F , 11°C
Humidity: 77%
Barometer: 30.08 inHg , 1018.6 hPa
Clouds: Clear
Visibility: 10 miles , 16 km
2022/08/11 09:15 KBAX 110915Z AUTO 32006KT 10SM CLR 15/11 A3008 RMK AO2 T01450105
KFNT - Flint, Michigan, USA
Distance from station: SSW 68 mi,
Updated:
Overcast
Overcast
 Wind from NNE
Wind: NNE 6 mph , 9 km/h
Temperature: 68°F , 20°C
Dew Point: 57°F , 14°C
Humidity: 69%
Barometer: 30.10 inHg , 1019.3 hPa
Clouds: Overcast
Visibility: 10 miles , 16 km
Cloud details: Overcast 4900 ft
2022/08/11 08:53 KFNT 110853Z AUTO 02005KT 10SM OVC049 20/14 A3010 RMK AO2 SLP189 T02000139 51003
 
KMBS - Saginaw, Michigan, USA
Distance from station: SW 44 mi,
Updated:
Few Clouds
Few Clouds
 Wind from NNW
Wind: NNW 7 mph , 11 km/h
Temperature: 63°F , 17°C
Dew Point: 52°F , 11°C
Humidity: 68%
Barometer: 30.12 inHg , 1020 hPa
Clouds: Few Clouds
Visibility: 10 miles , 16 km
Cloud details: Few Clouds 7000 ft
2022/08/11 08:53 KMBS 110853Z 33006KT 10SM FEW070 17/11 A3012 RMK AO2 SLP196 T01670106 58001
KDTW - Detroit/Wayne, Michigan, USA
Distance from station: SSE 117 mi,
Updated:
Mostly cloudy
Mostly cloudy
 Wind from NNE
Wind: NNE 7 mph , 11 km/h
Temperature: 70°F , 21°C
Dew Point: 57°F , 14°C
Humidity: 64%
Barometer: 30.08 inHg , 1018.6 hPa
Clouds: Mostly cloudy
Visibility: 10 miles , 16 km
Cloud details: Partly cloudy 6500 ft
Mostly cloudy 14000 ft
Mostly cloudy 25000 ft
2022/08/11 08:53 KDTW 110853Z 02006KT 10SM SCT065 BKN140 BKN250 21/14 A3008 RMK AO2 SLP180 T02060144 53002